sensor_id;sensor_type;location;lat;lon;timestamp;temperature;humidity
13256;DHT22;37913;48.370;10.930;2023-02-28T00:01:11;-1.50;99.90
13256;DHT22;37913;48.370;10.930;2023-02-28T00:03:38;-1.50;99.90
13256;DHT22;37913;48.370;10.930;2023-02-28T00:06:06;-1.50;99.90
13256;DHT22;37913;48.370;10.930;2023-02-28T00:08:35;-1.50;99.90
13256;DHT22;37913;48.370;10.930;2023-02-28T00:11:02;-1.50;99.90
13256;DHT22;37913;48.370;10.930;2023-02-28T00:13:31;-1.50;99.90
13256;DHT22;37913;48.370;10.930;2023-02-28T00:15:59;-1.60;99.90
13256;DHT22;37913;48.370;10.930;2023-02-28T00:18:27;-1.60;99.90
13256;DHT22;37913;48.370;10.930;2023-02-28T00:20:54;-1.70;99.90
13256;DHT22;37913;48.370;10.930;2023-02-28T00:23:21;-1.70;99.90
13256;DHT22;37913;48.370;10.930;2023-02-28T00:25:48;-1.70;99.90
13256;DHT22;37913;48.370;10.930;2023-02-28T00:28:15;-1.80;99.90
13256;DHT22;37913;48.370;10.930;2023-02-28T00:30:43;-1.80;99.90
13256;DHT22;37913;48.370;10.930;2023-02-28T00:33:10;-1.90;99.90
13256;DHT22;37913;48.370;10.930;2023-02-28T00:35:38;-2.00;99.90
13256;DHT22;37913;48.370;10.930;2023-02-28T00:38:05;-2.00;99.90
13256;DHT22;37913;48.370;10.930;2023-02-28T00:40:32;-2.10;99.90
13256;DHT22;37913;48.370;10.930;2023-02-28T00:42:59;-2.00;99.90
13256;DHT22;37913;48.370;10.930;2023-02-28T00:45:26;-2.10;99.90
13256;DHT22;37913;48.370;10.930;2023-02-28T00:47:54;-2.20;99.90
13256;DHT22;37913;48.370;10.930;2023-02-28T00:50:21;-2.10;99.90
13256;DHT22;37913;48.370;10.930;2023-02-28T00:52:48;-2.10;99.90
13256;DHT22;37913;48.370;10.930;2023-02-28T00:55:15;-2.20;99.90
13256;DHT22;37913;48.370;10.930;2023-02-28T00:57:42;-2.10;99.90
13256;DHT22;37913;48.370;10.930;2023-02-28T01:00:10;-2.20;99.90
13256;DHT22;37913;48.370;10.930;2023-02-28T01:02:37;-2.20;99.90
13256;DHT22;37913;48.370;10.930;2023-02-28T01:05:07;-2.20;99.90
13256;DHT22;37913;48.370;10.930;2023-02-28T01:07:34;-2.30;99.90
13256;DHT22;37913;48.370;10.930;2023-02-28T01:10:01;-2.30;99.90
13256;DHT22;37913;48.370;10.930;2023-02-28T01:12:27;-2.30;99.90
13256;DHT22;37913;48.370;10.930;2023-02-28T01:14:54;-2.30;99.90
13256;DHT22;37913;48.370;10.930;2023-02-28T01:17:21;-1.40;99.90
13256;DHT22;37913;48.370;10.930;2023-02-28T01:19:48;-2.30;99.90
13256;DHT22;37913;48.370;10.930;2023-02-28T01:22:16;-2.30;99.90
13256;DHT22;37913;48.370;10.930;2023-02-28T01:24:43;-2.30;99.90
13256;DHT22;37913;48.370;10.930;2023-02-28T01:27:10;-2.20;99.90
13256;DHT22;37913;48.370;10.930;2023-02-28T01:29:37;-2.30;99.90
13256;DHT22;37913;48.370;10.930;2023-02-28T01:32:04;-2.20;99.90
13256;DHT22;37913;48.370;10.930;2023-02-28T01:34:31;-2.20;99.90
13256;DHT22;37913;48.370;10.930;2023-02-28T01:36:58;-2.20;99.90
13256;DHT22;37913;48.370;10.930;2023-02-28T01:39:26;-2.10;99.90
13256;DHT22;37913;48.370;10.930;2023-02-28T01:41:53;-2.00;99.90
13256;DHT22;37913;48.370;10.930;2023-02-28T01:44:55;-2.20;99.90
13256;DHT22;37913;48.370;10.930;2023-02-28T01:47:26;-2.30;99.90
13256;DHT22;37913;48.370;10.930;2023-02-28T01:49:54;-2.30;99.90
13256;DHT22;37913;48.370;10.930;2023-02-28T01:52:22;-2.30;99.90
13256;DHT22;37913;48.370;10.930;2023-02-28T01:54:54;-2.30;99.90
13256;DHT22;37913;48.370;10.930;2023-02-28T01:57:23;-2.30;99.90
13256;DHT22;37913;48.370;10.930;2023-02-28T01:59:55;-2.40;99.90
13256;DHT22;37913;48.370;10.930;2023-02-28T02:02:25;-2.40;99.90
13256;DHT22;37913;48.370;10.930;2023-02-28T02:04:56;-2.50;99.90
13256;DHT22;37913;48.370;10.930;2023-02-28T02:07:25;-2.40;99.90
13256;DHT22;37913;48.370;10.930;2023-02-28T02:10:02;-2.50;99.90
13256;DHT22;37913;48.370;10.930;2023-02-28T02:12:41;-2.50;99.90
13256;DHT22;37913;48.370;10.930;2023-02-28T02:15:14;-2.40;99.90
13256;DHT22;37913;48.370;10.930;2023-02-28T02:17:45;-2.50;99.90
13256;DHT22;37913;48.370;10.930;2023-02-28T02:23:42;-2.50;99.90
13256;DHT22;37913;48.370;10.930;2023-02-28T02:26:49;-2.50;99.90
13256;DHT22;37913;48.370;10.930;2023-02-28T02:29:41;-2.60;99.90
13256;DHT22;37913;48.370;10.930;2023-02-28T02:32:41;-2.50;99.90
13256;DHT22;37913;48.370;10.930;2023-02-28T02:35:16;-2.50;99.90
13256;DHT22;37913;48.370;10.930;2023-02-28T02:37:51;-2.40;99.90
13256;DHT22;37913;48.370;10.930;2023-02-28T02:40:21;-2.40;99.90
13256;DHT22;37913;48.370;10.930;2023-02-28T02:42:51;-2.40;99.90
13256;DHT22;37913;48.370;10.930;2023-02-28T02:45:27;-2.40;99.90
13256;DHT22;37913;48.370;10.930;2023-02-28T02:47:56;-2.40;99.90
13256;DHT22;37913;48.370;10.930;2023-02-28T02:50:30;-1.20;99.90
13256;DHT22;37913;48.370;10.930;2023-02-28T02:53:00;-2.40;99.90
13256;DHT22;37913;48.370;10.930;2023-02-28T02:55:28;-2.40;99.90
13256;DHT22;37913;48.370;10.930;2023-02-28T02:57:59;-2.40;99.90
13256;DHT22;37913;48.370;10.930;2023-02-28T03:00:34;-2.30;99.90
13256;DHT22;37913;48.370;10.930;2023-02-28T03:03:03;-2.10;99.90
13256;DHT22;37913;48.370;10.930;2023-02-28T03:05:35;-2.20;99.90
13256;DHT22;37913;48.370;10.930;2023-02-28T03:08:06;-2.20;99.90
13256;DHT22;37913;48.370;10.930;2023-02-28T03:10:37;-2.20;99.90
13256;DHT22;37913;48.370;10.930;2023-02-28T03:13:24;-2.30;99.90
13256;DHT22;37913;48.370;10.930;2023-02-28T03:16:08;-2.20;99.90
13256;DHT22;37913;48.370;10.930;2023-02-28T03:18:43;-2.00;99.90
13256;DHT22;37913;48.370;10.930;2023-02-28T03:21:18;-2.00;99.90
13256;DHT22;37913;48.370;10.930;2023-02-28T03:23:53;-2.00;99.90
13256;DHT22;37913;48.370;10.930;2023-02-28T03:26:26;-2.00;99.90
13256;DHT22;37913;48.370;10.930;2023-02-28T03:29:01;-1.90;99.90
13256;DHT22;37913;48.370;10.930;2023-02-28T03:31:32;-1.90;99.90
13256;DHT22;37913;48.370;10.930;2023-02-28T03:34:03;-2.00;99.90
13256;DHT22;37913;48.370;10.930;2023-02-28T03:36:35;-2.00;99.90
13256;DHT22;37913;48.370;10.930;2023-02-28T03:39:13;-1.80;99.90
13256;DHT22;37913;48.370;10.930;2023-02-28T03:41:43;-2.00;99.90
13256;DHT22;37913;48.370;10.930;2023-02-28T03:44:16;-1.90;99.90
13256;DHT22;37913;48.370;10.930;2023-02-28T03:46:48;-1.90;99.90
13256;DHT22;37913;48.370;10.930;2023-02-28T03:49:21;-1.70;99.90
13256;DHT22;37913;48.370;10.930;2023-02-28T03:51:50;-1.70;99.90
13256;DHT22;37913;48.370;10.930;2023-02-28T03:54:22;-1.80;99.90
13256;DHT22;37913;48.370;10.930;2023-02-28T03:56:55;-1.90;99.90
13256;DHT22;37913;48.370;10.930;2023-02-28T03:59:27;-1.90;99.90
13256;DHT22;37913;48.370;10.930;2023-02-28T04:01:55;-1.90;99.90
13256;DHT22;37913;48.370;10.930;2023-02-28T04:04:24;-1.90;99.90
13256;DHT22;37913;48.370;10.930;2023-02-28T04:06:53;-1.80;99.90
13256;DHT22;37913;48.370;10.930;2023-02-28T04:09:27;-1.80;99.90
13256;DHT22;37913;48.370;10.930;2023-02-28T04:11:53;-1.90;99.90
13256;DHT22;37913;48.370;10.930;2023-02-28T04:14:22;-1.90;99.90
13256;DHT22;37913;48.370;10.930;2023-02-28T04:16:49;-1.90;99.90
13256;DHT22;37913;48.370;10.930;2023-02-28T04:19:17;-1.60;99.90
13256;DHT22;37913;48.370;10.930;2023-02-28T04:21:46;-0.80;99.90
13256;DHT22;37913;48.370;10.930;2023-02-28T04:24:16;-1.90;99.90
13256;DHT22;37913;48.370;10.930;2023-02-28T04:26:44;-1.80;99.90
13256;DHT22;37913;48.370;10.930;2023-02-28T04:29:13;-1.70;99.90
13256;DHT22;37913;48.370;10.930;2023-02-28T04:31:40;-1.80;99.90
13256;DHT22;37913;48.370;10.930;2023-02-28T04:34:07;-1.80;99.90
13256;DHT22;37913;48.370;10.930;2023-02-28T04:36:34;-1.80;99.90
13256;DHT22;37913;48.370;10.930;2023-02-28T04:39:01;-1.80;99.90
13256;DHT22;37913;48.370;10.930;2023-02-28T04:41:30;-1.80;99.90
13256;DHT22;37913;48.370;10.930;2023-02-28T04:43:57;-1.80;99.90
13256;DHT22;37913;48.370;10.930;2023-02-28T04:46:24;-1.90;99.90
13256;DHT22;37913;48.370;10.930;2023-02-28T04:48:51;-1.90;99.90
13256;DHT22;37913;48.370;10.930;2023-02-28T04:51:19;-1.90;99.90
13256;DHT22;37913;48.370;10.930;2023-02-28T04:53:46;-1.90;99.90
13256;DHT22;37913;48.370;10.930;2023-02-28T04:56:15;-1.90;99.90
13256;DHT22;37913;48.370;10.930;2023-02-28T04:58:44;-1.90;99.90
13256;DHT22;37913;48.370;10.930;2023-02-28T05:01:20;-1.90;99.90
13256;DHT22;37913;48.370;10.930;2023-02-28T05:03:48;-1.90;99.90
13256;DHT22;37913;48.370;10.930;2023-02-28T05:06:16;-1.90;99.90
13256;DHT22;37913;48.370;10.930;2023-02-28T05:08:43;-1.90;99.90
13256;DHT22;37913;48.370;10.930;2023-02-28T05:11:15;-1.40;99.90
13256;DHT22;37913;48.370;10.930;2023-02-28T05:13:44;-1.90;99.90
13256;DHT22;37913;48.370;10.930;2023-02-28T05:16:11;-1.90;99.90
13256;DHT22;37913;48.370;10.930;2023-02-28T05:18:38;-1.90;99.90
13256;DHT22;37913;48.370;10.930;2023-02-28T05:21:06;-1.90;99.90
13256;DHT22;37913;48.370;10.930;2023-02-28T05:23:44;-1.90;99.90
13256;DHT22;37913;48.370;10.930;2023-02-28T05:26:11;-1.90;99.90
13256;DHT22;37913;48.370;10.930;2023-02-28T05:28:38;-1.90;99.90
13256;DHT22;37913;48.370;10.930;2023-02-28T05:31:07;-1.90;99.90
13256;DHT22;37913;48.370;10.930;2023-02-28T05:33:34;-1.80;99.90
13256;DHT22;37913;48.370;10.930;2023-02-28T05:36:01;-1.90;99.90
13256;DHT22;37913;48.370;10.930;2023-02-28T05:38:27;-1.90;99.90
13256;DHT22;37913;48.370;10.930;2023-02-28T05:40:54;-1.90;99.90
13256;DHT22;37913;48.370;10.930;2023-02-28T05:43:21;-1.90;99.90
13256;DHT22;37913;48.370;10.930;2023-02-28T05:45:48;-1.80;99.90
13256;DHT22;37913;48.370;10.930;2023-02-28T05:48:17;-2.00;99.90
13256;DHT22;37913;48.370;10.930;2023-02-28T05:50:44;-1.90;99.90
13256;DHT22;37913;48.370;10.930;2023-02-28T05:53:11;-1.90;99.90
13256;DHT22;37913;48.370;10.930;2023-02-28T05:55:38;-1.90;99.90
13256;DHT22;37913;48.370;10.930;2023-02-28T05:58:06;-1.90;99.90
13256;DHT22;37913;48.370;10.930;2023-02-28T06:00:33;-1.80;99.90
13256;DHT22;37913;48.370;10.930;2023-02-28T06:03:00;-1.90;99.90
13256;DHT22;37913;48.370;10.930;2023-02-28T06:05:29;-1.90;99.90
13256;DHT22;37913;48.370;10.930;2023-02-28T06:07:55;-1.90;99.90
13256;DHT22;37913;48.370;10.930;2023-02-28T06:10:22;-1.20;99.90
13256;DHT22;37913;48.370;10.930;2023-02-28T06:12:49;-1.90;99.90
13256;DHT22;37913;48.370;10.930;2023-02-28T06:15:16;-1.30;99.90
13256;DHT22;37913;48.370;10.930;2023-02-28T06:17:44;-1.90;99.90
13256;DHT22;37913;48.370;10.930;2023-02-28T06:20:12;-1.90;99.90
13256;DHT22;37913;48.370;10.930;2023-02-28T06:22:40;-1.80;99.90
13256;DHT22;37913;48.370;10.930;2023-02-28T06:25:09;-1.90;99.90
13256;DHT22;37913;48.370;10.930;2023-02-28T06:27:36;-1.90;99.90
13256;DHT22;37913;48.370;10.930;2023-02-28T06:30:04;-1.90;99.90
13256;DHT22;37913;48.370;10.930;2023-02-28T06:32:31;-1.90;99.90
13256;DHT22;37913;48.370;10.930;2023-02-28T06:34:58;-1.90;99.90
13256;DHT22;37913;48.370;10.930;2023-02-28T06:37:25;-1.90;99.90
13256;DHT22;37913;48.370;10.930;2023-02-28T06:39:54;-1.80;99.90
13256;DHT22;37913;48.370;10.930;2023-02-28T06:42:22;-1.80;99.90
13256;DHT22;37913;48.370;10.930;2023-02-28T06:44:50;-1.80;99.90
13256;DHT22;37913;48.370;10.930;2023-02-28T06:47:17;-1.80;99.90
13256;DHT22;37913;48.370;10.930;2023-02-28T06:49:44;-1.70;99.90
13256;DHT22;37913;48.370;10.930;2023-02-28T06:52:11;-1.00;99.90
13256;DHT22;37913;48.370;10.930;2023-02-28T06:54:38;-1.70;99.90
13256;DHT22;37913;48.370;10.930;2023-02-28T06:57:06;-1.70;99.90
13256;DHT22;37913;48.370;10.930;2023-02-28T06:59:34;-1.70;99.90
13256;DHT22;37913;48.370;10.930;2023-02-28T07:02:02;-1.70;99.90
13256;DHT22;37913;48.370;10.930;2023-02-28T07:04:29;-1.30;99.90
13256;DHT22;37913;48.370;10.930;2023-02-28T07:06:55;-1.70;99.90
13256;DHT22;37913;48.370;10.930;2023-02-28T07:09:23;-1.70;99.90
13256;DHT22;37913;48.370;10.930;2023-02-28T07:11:50;-1.60;99.90
13256;DHT22;37913;48.370;10.930;2023-02-28T07:14:18;-1.60;99.90
13256;DHT22;37913;48.370;10.930;2023-02-28T07:16:45;-1.50;99.90
13256;DHT22;37913;48.370;10.930;2023-02-28T07:19:12;-1.50;99.90
13256;DHT22;37913;48.370;10.930;2023-02-28T07:21:38;-1.30;99.90
13256;DHT22;37913;48.370;10.930;2023-02-28T07:24:06;-1.50;99.90
13256;DHT22;37913;48.370;10.930;2023-02-28T07:26:33;-1.50;99.90
13256;DHT22;37913;48.370;10.930;2023-02-28T07:29:00;-1.30;99.90
13256;DHT22;37913;48.370;10.930;2023-02-28T07:31:29;-1.40;99.90
13256;DHT22;37913;48.370;10.930;2023-02-28T07:33:55;-1.40;99.90
13256;DHT22;37913;48.370;10.930;2023-02-28T07:36:22;-1.30;99.90
13256;DHT22;37913;48.370;10.930;2023-02-28T07:38:49;-0.50;99.90
13256;DHT22;37913;48.370;10.930;2023-02-28T07:41:17;-1.30;99.90
13256;DHT22;37913;48.370;10.930;2023-02-28T07:43:45;-1.30;99.90
13256;DHT22;37913;48.370;10.930;2023-02-28T07:46:14;-1.30;99.90
13256;DHT22;37913;48.370;10.930;2023-02-28T07:48:44;-0.60;99.90
13256;DHT22;37913;48.370;10.930;2023-02-28T07:51:12;-1.20;99.90
13256;DHT22;37913;48.370;10.930;2023-02-28T07:53:39;-1.20;99.90
13256;DHT22;37913;48.370;10.930;2023-02-28T07:56:07;-1.30;99.90
13256;DHT22;37913;48.370;10.930;2023-02-28T07:58:34;-1.20;99.90
13256;DHT22;37913;48.370;10.930;2023-02-28T08:01:05;-1.10;99.90
13256;DHT22;37913;48.370;10.930;2023-02-28T08:03:33;-1.30;99.90
13256;DHT22;37913;48.370;10.930;2023-02-28T08:06:01;-0.80;99.90
13256;DHT22;37913;48.370;10.930;2023-02-28T08:08:29;-1.20;99.90
13256;DHT22;37913;48.370;10.930;2023-02-28T08:10:58;0.40;99.90
13256;DHT22;37913;48.370;10.930;2023-02-28T08:13:26;-1.10;99.90
13256;DHT22;37913;48.370;10.930;2023-02-28T08:15:54;-1.00;99.90
13256;DHT22;37913;48.370;10.930;2023-02-28T08:18:21;-1.00;99.90
13256;DHT22;37913;48.370;10.930;2023-02-28T08:20:51;-0.90;99.90
13256;DHT22;37913;48.370;10.930;2023-02-28T08:23:19;-1.00;99.90
13256;DHT22;37913;48.370;10.930;2023-02-28T08:25:53;-1.00;99.90
13256;DHT22;37913;48.370;10.930;2023-02-28T08:28:20;-0.70;99.90
13256;DHT22;37913;48.370;10.930;2023-02-28T08:30:47;-0.60;99.90
13256;DHT22;37913;48.370;10.930;2023-02-28T08:33:14;-0.40;99.90
13256;DHT22;37913;48.370;10.930;2023-02-28T08:35:41;-0.60;99.90
13256;DHT22;37913;48.370;10.930;2023-02-28T08:38:08;-0.20;99.90
13256;DHT22;37913;48.370;10.930;2023-02-28T08:40:36;-0.10;99.90
13256;DHT22;37913;48.370;10.930;2023-02-28T08:43:03;-0.20;99.90
13256;DHT22;37913;48.370;10.930;2023-02-28T08:45:30;0.00;99.90
13256;DHT22;37913;48.370;10.930;2023-02-28T08:47:57;0.50;99.90
13256;DHT22;37913;48.370;10.930;2023-02-28T08:50:24;0.70;99.90
13256;DHT22;37913;48.370;10.930;2023-02-28T08:52:51;0.50;99.90
13256;DHT22;37913;48.370;10.930;2023-02-28T08:55:17;0.30;99.90
13256;DHT22;37913;48.370;10.930;2023-02-28T08:57:46;0.40;99.90
13256;DHT22;37913;48.370;10.930;2023-02-28T09:00:13;0.40;99.90
13256;DHT22;37913;48.370;10.930;2023-02-28T09:02:40;0.90;99.90
13256;DHT22;37913;48.370;10.930;2023-02-28T09:05:09;0.60;99.90
13256;DHT22;37913;48.370;10.930;2023-02-28T09:07:36;1.20;99.90
13256;DHT22;37913;48.370;10.930;2023-02-28T09:10:04;0.90;99.90
13256;DHT22;37913;48.370;10.930;2023-02-28T09:12:33;1.10;99.90
13256;DHT22;37913;48.370;10.930;2023-02-28T09:15:03;1.20;99.90
13256;DHT22;37913;48.370;10.930;2023-02-28T09:17:30;1.30;99.90
13256;DHT22;37913;48.370;10.930;2023-02-28T09:19:57;1.40;99.90
13256;DHT22;37913;48.370;10.930;2023-02-28T09:22:24;1.30;99.90
13256;DHT22;37913;48.370;10.930;2023-02-28T09:24:51;1.20;99.90
13256;DHT22;37913;48.370;10.930;2023-02-28T09:27:18;1.50;99.90
13256;DHT22;37913;48.370;10.930;2023-02-28T09:29:45;1.30;99.90
13256;DHT22;37913;48.370;10.930;2023-02-28T09:32:14;1.10;99.90
13256;DHT22;37913;48.370;10.930;2023-02-28T09:34:42;1.20;99.90
13256;DHT22;37913;48.370;10.930;2023-02-28T09:37:10;1.40;99.90
13256;DHT22;37913;48.370;10.930;2023-02-28T09:39:36;1.70;99.90
13256;DHT22;37913;48.370;10.930;2023-02-28T09:42:04;4.30;99.90
13256;DHT22;37913;48.370;10.930;2023-02-28T09:44:36;5.30;99.90
13256;DHT22;37913;48.370;10.930;2023-02-28T09:47:10;6.00;99.90
13256;DHT22;37913;48.370;10.930;2023-02-28T09:49:43;8.30;96.70
13256;DHT22;37913;48.370;10.930;2023-02-28T09:52:15;7.90;95.20
13256;DHT22;37913;48.370;10.930;2023-02-28T09:54:43;6.70;95.80
13256;DHT22;37913;48.370;10.930;2023-02-28T09:57:17;6.50;96.30
13256;DHT22;37913;48.370;10.930;2023-02-28T10:00:00;7.60;94.50
13256;DHT22;37913;48.370;10.930;2023-02-28T10:03:14;8.70;92.90
13256;DHT22;37913;48.370;10.930;2023-02-28T10:05:53;12.00;87.50
13256;DHT22;37913;48.370;10.930;2023-02-28T10:08:26;11.80;78.70
13256;DHT22;37913;48.370;10.930;2023-02-28T10:10:56;10.50;81.30
13256;DHT22;37913;48.370;10.930;2023-02-28T10:13:28;12.70;78.50
13256;DHT22;37913;48.370;10.930;2023-02-28T10:16:02;13.40;75.30
13256;DHT22;37913;48.370;10.930;2023-02-28T10:18:34;14.50;72.10
13256;DHT22;37913;48.370;10.930;2023-02-28T10:21:08;14.80;67.90
13256;DHT22;37913;48.370;10.930;2023-02-28T10:23:40;13.80;69.10
13256;DHT22;37913;48.370;10.930;2023-02-28T10:26:13;14.80;68.40
13256;DHT22;37913;48.370;10.930;2023-02-28T10:28:42;16.60;66.70
13256;DHT22;37913;48.370;10.930;2023-02-28T10:31:12;17.70;62.70
13256;DHT22;37913;48.370;10.930;2023-02-28T10:33:42;16.30;63.20
13256;DHT22;37913;48.370;10.930;2023-02-28T10:36:14;15.10;63.10
13256;DHT22;37913;48.370;10.930;2023-02-28T10:38:43;14.70;62.30
13256;DHT22;37913;48.370;10.930;2023-02-28T10:41:13;12.30;64.60
13256;DHT22;37913;48.370;10.930;2023-02-28T10:43:41;12.00;66.10
13256;DHT22;37913;48.370;10.930;2023-02-28T10:46:15;11.70;68.40
13256;DHT22;37913;48.370;10.930;2023-02-28T10:49:01;16.40;65.00
13256;DHT22;37913;48.370;10.930;2023-02-28T10:51:36;12.20;64.70
13256;DHT22;37913;48.370;10.930;2023-02-28T10:54:04;13.60;65.60
13256;DHT22;37913;48.370;10.930;2023-02-28T10:56:32;13.30;66.50
13256;DHT22;37913;48.370;10.930;2023-02-28T10:59:01;14.50;62.30
13256;DHT22;37913;48.370;10.930;2023-02-28T11:01:36;14.50;63.20
13256;DHT22;37913;48.370;10.930;2023-02-28T11:04:16;15.40;63.40
13256;DHT22;37913;48.370;10.930;2023-02-28T11:06:46;14.90;60.50
13256;DHT22;37913;48.370;10.930;2023-02-28T11:09:20;14.30;63.70
13256;DHT22;37913;48.370;10.930;2023-02-28T11:11:50;12.80;64.70
13256;DHT22;37913;48.370;10.930;2023-02-28T11:14:20;15.10;62.30
13256;DHT22;37913;48.370;10.930;2023-02-28T11:16:48;13.40;62.20
13256;DHT22;37913;48.370;10.930;2023-02-28T11:19:19;11.60;66.30
13256;DHT22;37913;48.370;10.930;2023-02-28T11:21:53;12.60;65.90
13256;DHT22;37913;48.370;10.930;2023-02-28T11:24:24;10.60;68.00
13256;DHT22;37913;48.370;10.930;2023-02-28T11:26:52;9.50;70.90
13256;DHT22;37913;48.370;10.930;2023-02-28T11:29:21;8.60;74.70
13256;DHT22;37913;48.370;10.930;2023-02-28T11:32:03;10.10;71.90
13256;DHT22;37913;48.370;10.930;2023-02-28T11:34:30;9.90;73.30
13256;DHT22;37913;48.370;10.930;2023-02-28T11:36:59;11.50;70.40
13256;DHT22;37913;48.370;10.930;2023-02-28T11:39:30;12.10;68.00
13256;DHT22;37913;48.370;10.930;2023-02-28T11:42:28;13.20;66.70
13256;DHT22;37913;48.370;10.930;2023-02-28T11:45:11;11.60;66.50
13256;DHT22;37913;48.370;10.930;2023-02-28T11:47:47;11.40;69.20
13256;DHT22;37913;48.370;10.930;2023-02-28T11:50:21;11.40;69.00
13256;DHT22;37913;48.370;10.930;2023-02-28T11:52:55;12.40;68.70
13256;DHT22;37913;48.370;10.930;2023-02-28T11:55:26;12.30;67.50
13256;DHT22;37913;48.370;10.930;2023-02-28T12:01:04;9.70;72.80
13256;DHT22;37913;48.370;10.930;2023-02-28T12:03:42;9.70;72.80
13256;DHT22;37913;48.370;10.930;2023-02-28T12:06:18;10.40;72.60
13256;DHT22;37913;48.370;10.930;2023-02-28T12:11:47;12.90;66.10
13256;DHT22;37913;48.370;10.930;2023-02-28T12:14:30;12.80;65.00
13256;DHT22;37913;48.370;10.930;2023-02-28T12:17:15;12.60;65.00
13256;DHT22;37913;48.370;10.930;2023-02-28T12:19:50;14.70;63.40
13256;DHT22;37913;48.370;10.930;2023-02-28T12:22:28;15.70;61.60
13256;DHT22;37913;48.370;10.930;2023-02-28T12:25:28;15.30;61.90
13256;DHT22;37913;48.370;10.930;2023-02-28T12:27:59;14.30;62.60
13256;DHT22;37913;48.370;10.930;2023-02-28T12:30:28;14.80;62.10
13256;DHT22;37913;48.370;10.930;2023-02-28T12:33:01;15.20;60.80
13256;DHT22;37913;48.370;10.930;2023-02-28T12:35:33;14.50;62.20
13256;DHT22;37913;48.370;10.930;2023-02-28T12:38:04;14.10;62.20
13256;DHT22;37913;48.370;10.930;2023-02-28T12:40:42;14.10;61.90
13256;DHT22;37913;48.370;10.930;2023-02-28T12:43:12;13.50;61.70
13256;DHT22;37913;48.370;10.930;2023-02-28T12:45:44;12.60;63.90
13256;DHT22;37913;48.370;10.930;2023-02-28T12:48:17;12.10;64.40
13256;DHT22;37913;48.370;10.930;2023-02-28T12:50:47;12.60;65.40
13256;DHT22;37913;48.370;10.930;2023-02-28T12:53:23;14.30;64.00
13256;DHT22;37913;48.370;10.930;2023-02-28T12:56:03;16.30;60.60
13256;DHT22;37913;48.370;10.930;2023-02-28T12:58:39;15.60;60.90
13256;DHT22;37913;48.370;10.930;2023-02-28T13:01:26;14.70;59.70
13256;DHT22;37913;48.370;10.930;2023-02-28T13:07:36;13.70;61.80
13256;DHT22;37913;48.370;10.930;2023-02-28T13:10:06;15.60;61.90
13256;DHT22;37913;48.370;10.930;2023-02-28T13:12:36;16.70;59.00
13256;DHT22;37913;48.370;10.930;2023-02-28T13:15:07;15.80;59.50
13256;DHT22;37913;48.370;10.930;2023-02-28T13:17:39;16.50;57.70
13256;DHT22;37913;48.370;10.930;2023-02-28T13:20:16;15.30;59.30
13256;DHT22;37913;48.370;10.930;2023-02-28T13:22:46;14.60;60.20
13256;DHT22;37913;48.370;10.930;2023-02-28T13:34:16;15.60;59.60
13256;DHT22;37913;48.370;10.930;2023-02-28T13:36:43;16.80;59.30
13256;DHT22;37913;48.370;10.930;2023-02-28T13:39:46;18.20;57.80
13256;DHT22;37913;48.370;10.930;2023-02-28T13:42:32;14.40;59.60
13256;DHT22;37913;48.370;10.930;2023-02-28T13:45:22;11.20;65.80
13256;DHT22;37913;48.370;10.930;2023-02-28T13:47:56;9.70;69.10
13256;DHT22;37913;48.370;10.930;2023-02-28T13:50:33;13.30;63.50
13256;DHT22;37913;48.370;10.930;2023-02-28T13:53:34;10.50;65.70
13256;DHT22;37913;48.370;10.930;2023-02-28T13:56:10;10.10;66.80
13256;DHT22;37913;48.370;10.930;2023-02-28T13:58:53;9.90;70.60
13256;DHT22;37913;48.370;10.930;2023-02-28T14:01:45;8.50;73.40
13256;DHT22;37913;48.370;10.930;2023-02-28T14:04:49;7.70;77.60
13256;DHT22;37913;48.370;10.930;2023-02-28T14:07:22;8.20;76.80
13256;DHT22;37913;48.370;10.930;2023-02-28T14:09:56;7.50;80.30
13256;DHT22;37913;48.370;10.930;2023-02-28T14:12:55;7.00;81.20
13256;DHT22;37913;48.370;10.930;2023-02-28T14:15:39;6.70;84.80
13256;DHT22;37913;48.370;10.930;2023-02-28T14:18:16;7.20;84.80
13256;DHT22;37913;48.370;10.930;2023-02-28T14:20:47;7.10;83.70
13256;DHT22;37913;48.370;10.930;2023-02-28T14:23:23;7.60;84.20
13256;DHT22;37913;48.370;10.930;2023-02-28T14:26:01;9.50;76.40
13256;DHT22;37913;48.370;10.930;2023-02-28T14:28:49;8.00;80.00
13256;DHT22;37913;48.370;10.930;2023-02-28T14:31:24;8.30;78.20
13256;DHT22;37913;48.370;10.930;2023-02-28T14:34:13;7.00;81.80
13256;DHT22;37913;48.370;10.930;2023-02-28T14:36:46;8.60;79.00
13256;DHT22;37913;48.370;10.930;2023-02-28T14:39:17;11.00;76.00
13256;DHT22;37913;48.370;10.930;2023-02-28T14:41:45;10.30;73.00
13256;DHT22;37913;48.370;10.930;2023-02-28T14:44:15;11.00;72.60
13256;DHT22;37913;48.370;10.930;2023-02-28T14:46:43;11.20;70.00
13256;DHT22;37913;48.370;10.930;2023-02-28T14:49:17;10.70;71.20
13256;DHT22;37913;48.370;10.930;2023-02-28T14:51:49;11.40;70.90
13256;DHT22;37913;48.370;10.930;2023-02-28T14:54:19;10.80;68.90
13256;DHT22;37913;48.370;10.930;2023-02-28T14:56:50;10.60;71.40
13256;DHT22;37913;48.370;10.930;2023-02-28T14:59:26;11.10;70.90
13256;DHT22;37913;48.370;10.930;2023-02-28T15:02:18;10.50;69.30
13256;DHT22;37913;48.370;10.930;2023-02-28T15:04:53;10.60;71.20
13256;DHT22;37913;48.370;10.930;2023-02-28T15:07:22;9.70;73.90
13256;DHT22;37913;48.370;10.930;2023-02-28T15:10:08;8.40;76.30
13256;DHT22;37913;48.370;10.930;2023-02-28T15:12:36;7.70;80.00
13256;DHT22;37913;48.370;10.930;2023-02-28T15:15:04;7.90;81.20
13256;DHT22;37913;48.370;10.930;2023-02-28T15:17:34;8.00;81.20
13256;DHT22;37913;48.370;10.930;2023-02-28T15:20:01;7.20;82.70
13256;DHT22;37913;48.370;10.930;2023-02-28T15:22:35;6.70;85.50
13256;DHT22;37913;48.370;10.930;2023-02-28T15:25:04;6.70;85.60
13256;DHT22;37913;48.370;10.930;2023-02-28T15:27:34;6.20;87.20
13256;DHT22;37913;48.370;10.930;2023-02-28T15:30:06;6.20;88.60
13256;DHT22;37913;48.370;10.930;2023-02-28T15:32:35;6.10;89.00
13256;DHT22;37913;48.370;10.930;2023-02-28T15:35:18;5.40;91.00
13256;DHT22;37913;48.370;10.930;2023-02-28T15:37:48;5.30;91.60
13256;DHT22;37913;48.370;10.930;2023-02-28T15:40:26;5.20;92.40
13256;DHT22;37913;48.370;10.930;2023-02-28T15:43:03;4.90;92.80
13256;DHT22;37913;48.370;10.930;2023-02-28T15:45:36;4.90;93.20
13256;DHT22;37913;48.370;10.930;2023-02-28T15:48:15;4.40;93.90
13256;DHT22;37913;48.370;10.930;2023-02-28T15:50:43;4.10;94.00
13256;DHT22;37913;48.370;10.930;2023-02-28T15:53:16;3.80;94.70
13256;DHT22;37913;48.370;10.930;2023-02-28T15:55:44;3.60;95.10
13256;DHT22;37913;48.370;10.930;2023-02-28T15:58:12;3.50;95.50
13256;DHT22;37913;48.370;10.930;2023-02-28T16:00:43;3.40;95.40
13256;DHT22;37913;48.370;10.930;2023-02-28T16:03:25;3.40;96.10
13256;DHT22;37913;48.370;10.930;2023-02-28T16:08:56;3.20;97.20
13256;DHT22;37913;48.370;10.930;2023-02-28T16:11:23;3.10;97.50